ADDS METAR Data INFO
IDs: Format: Raw Decoded Include TAF

Data at: 2303 UTC 15 Jul 2018

KPNM 152256Z AUTO 31007KT 10SM CLR 26/21 A2997 RMK AO2
KPNM 152255Z AUTO 30006KT 10SM CLR 26/21 A2997 RMK AO2
KPNM 152235Z AUTO 29007KT 10SM SCT033 26/21 A2997 RMK AO2
KPNM 152215Z AUTO 31008G14KT 10SM SCT028 BKN035 26/21 A2998 RMK AO2
KPNM 152156Z AUTO 29010G15KT 10SM SCT028 27/21 A2998 RMK AO2
KPNM 152155Z AUTO 29010G15KT 10SM SCT028 27/21 A2998 RMK AO2
KPNM 152135Z AUTO 29010KT 10SM SCT026 28/21 A2998 RMK AO2
KPNM 152115Z AUTO 28009KT 10SM SCT026 27/22 A2998 RMK AO2
KPNM 152056Z AUTO 30009G14KT 10SM SCT040 28/22 A2996 RMK AO2
KPNM 152055Z AUTO 30009G14KT 10SM SCT040 28/22 A2996 RMK AO2
KPNM 152035Z AUTO 25006KT 10SM SCT031 SCT040 29/21 A2996 RMK AO2
KPNM 152016Z AUTO 26007KT 10SM SCT031 29/22 A2996 RMK AO2
KPNM 152015Z AUTO 26007KT 10SM SCT031 29/22 A2996 RMK AO2
KPNM 151956Z AUTO 28006KT 10SM CLR 30/22 A2996 RMK AO2
KPNM 151955Z AUTO 27006KT 10SM SCT055 30/22 A2996 RMK AO2
KPNM 151935Z AUTO 28006KT 10SM SCT055 30/22 A2996 RMK AO2
KPNM 151915Z AUTO 27007KT 243V303 10SM SCT038 SCT045 29/21 A2997 RMK AO2
KPNM 151856Z AUTO 27007G14KT 10SM SCT038 29/22 A2997 RMK AO2
KPNM 151855Z AUTO 28007G14KT 10SM SCT038 29/22 A2997 RMK AO2
KPNM 151835Z AUTO 26007KT 10SM SCT040 29/21 A2997 RMK AO2
KPNM 151815Z AUTO 24009KT 10SM SCT042 30/19 A2997 RMK AO2
KPNM 151756Z AUTO 22006KT 10SM CLR 30/19 A2998 RMK AO2
KPNM 151755Z AUTO 22007KT 10SM CLR 30/19 A2998 RMK AO2
KPNM 151735Z AUTO 23008G15KT 10SM SCT036 30/21 A2999 RMK AO2
KPNM 151715Z AUTO 25007KT 10SM SCT036 SCT046 29/20 A3000 RMK AO2
KPNM 151656Z AUTO 25008KT 10SM SCT038 29/21 A2999 RMK AO2
KPNM 151655Z AUTO 24008KT 10SM SCT038 29/21 A3000 RMK AO2
KPNM 151635Z AUTO 24007KT 10SM CLR 29/20 A3000 RMK AO2
KPNM 151615Z AUTO 24009KT 10SM CLR 29/21 A3000 RMK AO2
KPNM 151556Z AUTO 25009KT 10SM CLR 29/20 A2999 RMK AO2
KPNM 151555Z AUTO 25009KT 10SM CLR 29/20 A2999 RMK AO2
KPNM 151536Z AUTO 23004KT 10SM CLR 28/21 A2999 RMK AO2
KPNM 151535Z AUTO 22004KT 10SM CLR 28/21 A2999 RMK AO2
KPNM 151515Z AUTO 20005KT 10SM CLR 29/21 A2999 RMK AO2
KPNM 151456Z AUTO 23004KT 10SM CLR 28/21 A2999 RMK AO2
KPNM 151455Z AUTO 23005KT 10SM CLR 28/21 A2999 RMK AO2
KPNM 151435Z AUTO 24003KT 10SM CLR 28/21 A2999 RMK AO2
KPNM 151415Z AUTO 21003KT 10SM CLR 27/21 A2999 RMK AO2
KPNM 151356Z AUTO 00000KT 10SM CLR 26/21 A2999 RMK AO2
KPNM 151355Z AUTO 23003KT 10SM CLR 26/21 A2999 RMK AO2
KPNM 151335Z AUTO 23003KT 10SM CLR 25/21 A2999 RMK AO2
KPNM 151315Z AUTO 00000KT 10SM CLR 24/21 A2999 RMK AO2
KPNM 151255Z AUTO 00000KT 10SM CLR 23/22 A3000 RMK AO2
KPNM 151235Z AUTO 00000KT 10SM CLR 22/21 A2999 RMK AO2 LTG DSNT W
KPNM 151215Z AUTO 00000KT 7SM CLR 21/20 A2999 RMK AO2
KPNM 151156Z AUTO 00000KT 4SM BR CLR 19/19 A2999 RMK AO2
KPNM 151155Z AUTO 00000KT 3SM BR CLR 19/19 A3000 RMK AO2
KPNM 151135Z AUTO 00000KT 1/2SM FG VV005 18/17 A2999 RMK AO2
KPNM 151115Z AUTO 00000KT 2 1/2SM BR CLR 17/17 A2999 RMK AO2 VIS 1/2V5
KPNM 151056Z AUTO 00000KT 1/2SM FG VV005 17/17 A2998 RMK AO2
KPNM 151055Z AUTO 00000KT 1/2SM FG VV005 17/17 A2998 RMK AO2
KPNM 151035Z AUTO 00000KT 3SM BR CLR 17/16 A2998 RMK AO2
KPNM 151015Z AUTO 00000KT 7SM CLR 18/18 A2999 RMK AO2
KPNM 150956Z AUTO 00000KT 5SM BR SCT001 18/17 A2999 RMK AO2
KPNM 150955Z AUTO 00000KT 7SM SCT001 18/17 A2999 RMK AO2
KPNM 150935Z AUTO 00000KT 1/4SM FG OVC001 18/17 A2999 RMK AO2
KPNM 150915Z AUTO 00000KT 1/2SM FG BKN001 18/17 A3000 RMK AO2
KPNM 150856Z AUTO 00000KT 4SM BR CLR 18/17 A3000 RMK AO2
KPNM 150855Z AUTO 00000KT 1 3/4SM BR BKN001 18/17 A3000 RMK AO2
KPNM 150835Z AUTO 00000KT 1/2SM FG VV005 18/17 A2999 RMK AO2
KPNM 150815Z AUTO 00000KT 7SM CLR 18/17 A2999 RMK AO2
KPNM 150755Z AUTO 00000KT 5SM BR CLR 19/18 A2999 RMK AO2
KPNM 150735Z AUTO 00000KT 10SM CLR 19/18 A2999 RMK AO2
KPNM 150715Z AUTO 00000KT 10SM CLR 19/18 A3000 RMK AO2
KPNM 150656Z AUTO 00000KT 7SM CLR 19/18 A3000 RMK AO2
KPNM 150655Z AUTO 00000KT 10SM CLR 19/18 A3000 RMK AO2
KPNM 150635Z AUTO 00000KT 10SM CLR 20/19 A3000 RMK AO2
KPNM 150615Z AUTO 00000KT 10SM CLR 20/18 A3001 RMK AO2
KPNM 150556Z AUTO 00000KT 10SM CLR 20/18 A3001 RMK AO2
KPNM 150555Z AUTO 00000KT 10SM CLR 20/18 A3001 RMK AO2
KPNM 150535Z AUTO 00000KT 10SM CLR 21/19 A3002 RMK AO2
KPNM 150515Z AUTO 00000KT 10SM CLR 21/19 A3002 RMK AO2
KPNM 150456Z AUTO 00000KT 10SM CLR 21/18 A3002 RMK AO2
KPNM 150455Z AUTO 00000KT 10SM CLR 21/18 A3002 RMK AO2
KPNM 150436Z AUTO 00000KT 10SM CLR 22/19 A3002 RMK AO2
KPNM 150435Z AUTO 00000KT 10SM CLR 22/19 A3002 RMK AO2
KPNM 150416Z AUTO 00000KT 10SM CLR 22/19 A3001 RMK AO2
KPNM 150415Z AUTO 00000KT 10SM CLR 22/19 A3001 RMK AO2
KPNM 150355Z AUTO 00000KT 10SM CLR 22/19 A3001 RMK AO2
KPNM 150336Z AUTO 00000KT 10SM CLR 23/19 A3000 RMK AO2
KPNM 150335Z AUTO 00000KT 10SM CLR 23/19 A3000 RMK AO2
KPNM 150316Z AUTO 15003KT 10SM CLR 23/20 A3000 RMK AO2
KPNM 150315Z AUTO 15003KT 10SM CLR 23/20 A2999 RMK AO2
KPNM 150255Z AUTO 15003KT 10SM CLR 24/20 A2999 RMK AO2
KPNM 150236Z AUTO 00000KT 10SM CLR 24/19 A2999 RMK AO2
KPNM 150235Z AUTO 00000KT 10SM CLR 24/19 A2999 RMK AO2
KPNM 150216Z AUTO 00000KT 10SM CLR 24/19 A2998 RMK AO2
KPNM 150215Z AUTO 00000KT 10SM CLR 24/19 A2998 RMK AO2
KPNM 150155Z AUTO 00000KT 10SM CLR 26/19 A2998 RMK AO2
KPNM 150136Z AUTO 00000KT 10SM CLR 27/19 A2998 RMK AO2
KPNM 150135Z AUTO 00000KT 10SM CLR 27/19 A2998 RMK AO2
KPNM 150116Z AUTO 00000KT 10SM CLR 28/18 A2998 RMK AO2
KPNM 150115Z AUTO 00000KT 10SM CLR 28/18 A2998 RMK AO2
KPNM 150055Z AUTO 16003KT 10SM CLR 29/18 A2998 RMK AO2
KPNM 150036Z AUTO 14003KT 10SM CLR 30/17 A2998 RMK AO2
KPNM 150035Z AUTO 13003KT 10SM CLR 30/17 A2998 RMK AO2
KPNM 150016Z AUTO 13005KT 10SM CLR 30/17 A2998 RMK AO2
KPNM 150015Z AUTO 12005KT 10SM CLR 30/17 A2998 RMK AO2
KPNM 142355Z AUTO 00000KT 10SM CLR 31/16 A2998 RMK AO2
KPNM 142336Z AUTO 00000KT 10SM CLR 31/16 A2999 RMK AO2
KPNM 142335Z AUTO 00000KT 10SM CLR 31/16 A2999 RMK AO2
KPNM 142316Z AUTO 19003KT 10SM CLR 31/17 A3000 RMK AO2
KPNM 142315Z AUTO 17003KT 10SM CLR 31/17 A3000 RMK AO2
KPNM 142256Z AUTO 17003KT 10SM SCT060 31/17 A3000 RMK AO2
KPNM 142255Z AUTO 16003KT 10SM SCT060 31/17 A3000 RMK AO2
KPNM 142236Z AUTO 00000KT 10SM CLR 31/18 A3000 RMK AO2
KPNM 142235Z AUTO 00000KT 10SM CLR 31/18 A3000 RMK AO2
KPNM 142216Z AUTO 14005KT 10SM SCT060 32/17 A3001 RMK AO2
KPNM 142215Z AUTO 15005KT 10SM SCT060 32/17 A3001 RMK AO2
KPNM 142156Z AUTO 15004KT 10SM BKN060 32/18 A3001 RMK AO2
KPNM 142155Z AUTO 14003KT 10SM BKN060 32/18 A3001 RMK AO2
KPNM 142136Z AUTO 20003KT 10SM SCT060 32/18 A3001 RMK AO2
KPNM 142135Z AUTO 23003KT 10SM SCT060 31/17 A3001 RMK AO2
KPNM 142116Z AUTO 00000KT 10SM SCT060 32/17 A3002 RMK AO2
KPNM 142115Z AUTO 00000KT 10SM SCT060 32/17 A3002 RMK AO2
KPNM 142056Z AUTO 18003KT 10SM BKN060 32/17 A3002 RMK AO2
KPNM 142055Z AUTO 17004KT 10SM BKN060 32/17 A3002 RMK AO2
KPNM 142036Z AUTO 14003KT 10SM SCT060 32/17 A3002 RMK AO2
KPNM 142035Z AUTO 14003KT 10SM SCT060 32/17 A3002 RMK AO2
KPNM 142016Z AUTO 18004KT 10SM SCT060 32/17 A3002 RMK AO2
KPNM 142015Z AUTO 18003KT 10SM SCT060 32/16 A3002 RMK AO2
KPNM 141956Z AUTO 00000KT 10SM SCT060 31/17 A3003 RMK AO2
KPNM 141955Z AUTO 00000KT 10SM SCT060 31/17 A3003 RMK AO2
KPNM 141936Z AUTO 00000KT 10SM SCT060 32/16 A3003 RMK AO2
KPNM 141935Z AUTO 00000KT 10SM SCT060 32/16 A3003 RMK AO2
KPNM 141916Z AUTO 00000KT 10SM CLR 32/17 A3004 RMK AO2
KPNM 141915Z AUTO 00000KT 10SM CLR 32/17 A3004 RMK AO2
KPNM 141856Z AUTO 14004KT 10SM CLR 32/16 A3004 RMK AO2
KPNM 141855Z AUTO 15004KT 10SM CLR 32/16 A3004 RMK AO2
KPNM 141836Z AUTO 09004KT 10SM CLR 31/16 A3005 RMK AO2
KPNM 141835Z AUTO 10004KT 10SM CLR 31/16 A3005 RMK AO2
KPNM 141816Z AUTO 12004KT 10SM CLR 31/17 A3005 RMK AO2
KPNM 141815Z AUTO 12004KT 10SM CLR 31/17 A3005 RMK AO2
KPNM 141756Z AUTO 00000KT 10SM CLR 31/17 A3005 RMK AO2
KPNM 141755Z AUTO 00000KT 10SM CLR 31/16 A3005 RMK AO2
KPNM 141736Z AUTO 04003KT 10SM CLR 31/17 A3005 RMK AO2
KPNM 141735Z AUTO 00000KT 10SM CLR 31/17 A3005 RMK AO2
KPNM 141716Z AUTO 10003KT 10SM CLR 31/17 A3005 RMK AO2
KPNM 141715Z AUTO 09003KT 10SM CLR 31/17 A3005 RMK AO2
KPNM 141656Z AUTO 09004KT 10SM CLR 30/18 A3006 RMK AO2
KPNM 141655Z AUTO 09004KT 10SM CLR 30/18 A3006 RMK AO2
KPNM 141636Z AUTO 09005KT 10SM CLR 30/17 A3006 RMK AO2
KPNM 141635Z AUTO 09004KT 10SM CLR 30/17 A3006 RMK AO2
KPNM 141616Z AUTO 00000KT 10SM CLR 30/18 A3007 RMK AO2
KPNM 141615Z AUTO 11003KT 10SM CLR 30/18 A3007 RMK AO2
KPNM 141556Z AUTO 00000KT 10SM CLR 29/17 A3007 RMK AO2
KPNM 141555Z AUTO 00000KT 10SM CLR 29/17 A3007 RMK AO2
KPNM 141536Z AUTO 00000KT 10SM CLR 29/17 A3007 RMK AO2
KPNM 141535Z AUTO 00000KT 10SM CLR 29/17 A3007 RMK AO2
KPNM 141516Z AUTO 00000KT 10SM CLR 28/19 A3007 RMK AO2
KPNM 141515Z AUTO 00000KT 10SM CLR 28/19 A3007 RMK AO2
KPNM 141456Z AUTO 00000KT 10SM CLR 28/19 A3007 RMK AO2
KPNM 141455Z AUTO 00000KT 10SM CLR 28/19 A3007 RMK AO2
KPNM 141436Z AUTO 00000KT 10SM CLR 27/19 A3007 RMK AO2
KPNM 141435Z AUTO 00000KT 10SM CLR 27/19 A3007 RMK AO2
KPNM 141416Z AUTO 00000KT 10SM CLR 26/20 A3007 RMK AO2
KPNM 141415Z AUTO 00000KT 10SM CLR 26/20 A3007 RMK AO2
KPNM 141356Z AUTO 00000KT 10SM CLR 24/19 A3007 RMK AO2
KPNM 141355Z AUTO 00000KT 10SM CLR 24/19 A3007 RMK AO2
KPNM 141336Z AUTO 00000KT 10SM CLR 22/22 A3007 RMK AO2
KPNM 141335Z AUTO 00000KT 10SM CLR 22/22 A3007 RMK AO2
KPNM 141316Z AUTO 00000KT 10SM CLR 22/21 A3007 RMK AO2
KPNM 141315Z AUTO 00000KT 10SM CLR 22/21 A3007 RMK AO2
KPNM 141256Z AUTO 00000KT 10SM CLR 21/20 A3007 RMK AO2
KPNM 141255Z AUTO 00000KT 10SM CLR 21/20 A3007 RMK AO2
KPNM 141236Z AUTO 00000KT 10SM CLR 21/20 A3007 RMK AO2
KPNM 141235Z AUTO 00000KT 10SM CLR 21/20 A3007 RMK AO2
KPNM 141216Z AUTO 00000KT 7SM CLR 20/19 A3007 RMK AO2
KPNM 141215Z AUTO 00000KT 7SM CLR 20/19 A3007 RMK AO2
KPNM 141156Z AUTO 00000KT 5SM BR CLR 19/18 A3006 RMK AO2
KPNM 141155Z AUTO 00000KT 4SM BR SCT001 19/18 A3006 RMK AO2
KPNM 141136Z AUTO 00000KT 1/4SM FG OVC001 18/17 A3006 RMK AO2
KPNM 141135Z AUTO 00000KT 1/4SM FG OVC001 18/17 A3006 RMK AO2
KPNM 141116Z AUTO 00000KT M1/4SM FG OVC001 17/17 A3006 RMK AO2
KPNM 141115Z AUTO 00000KT M1/4SM FG OVC001 17/17 A3006 RMK AO2